createdAt,value
2022-09-16T00:01:34.362Z,10.85
2022-09-16T00:04:01.106Z,8.73
2022-09-16T00:06:29.750Z,9.63
2022-09-16T00:08:58.199Z,14.35
2022-09-16T00:11:24.971Z,15.57
2022-09-16T00:13:51.682Z,14.15
2022-09-16T00:16:22.578Z,14.63
2022-09-16T00:18:49.434Z,14.32
2022-09-16T00:21:16.054Z,8.88
2022-09-16T00:23:42.640Z,11.20
2022-09-16T00:26:09.259Z,17.63
2022-09-16T00:28:35.907Z,10.98
2022-09-16T00:31:03.362Z,16.75
2022-09-16T00:33:30.062Z,16.60
2022-09-16T00:36:13.654Z,10.05
2022-09-16T00:38:40.991Z,9.15
2022-09-16T00:41:08.614Z,9.27
2022-09-16T00:43:56.113Z,16.33
2022-09-16T00:46:26.796Z,13.18
2022-09-16T00:48:54.119Z,11.85
2022-09-16T00:51:21.598Z,12.80
2022-09-16T00:53:57.033Z,13.32
2022-09-16T00:56:26.538Z,16.63
2022-09-16T00:59:03.403Z,16.60
2022-09-16T01:01:31.262Z,17.58
2022-09-16T01:04:03.985Z,16.73
2022-09-16T01:06:32.353Z,10.32
2022-09-16T01:08:59.978Z,16.08
2022-09-16T01:11:27.021Z,12.32
2022-09-16T01:13:53.893Z,14.60
2022-09-16T01:16:26.098Z,14.05
2022-09-16T01:19:31.351Z,15.68
2022-09-16T01:22:29.081Z,15.15
2022-09-16T01:25:20.887Z,11.27
2022-09-16T01:28:14.342Z,15.10
2022-09-16T01:30:51.625Z,15.15
2022-09-16T01:33:18.300Z,15.02
2022-09-16T01:36:06.381Z,10.90
2022-09-16T01:38:48.619Z,9.63
2022-09-16T01:41:42.284Z,16.38
2022-09-16T01:44:34.351Z,19.42
2022-09-16T01:47:12.548Z,14.20
2022-09-16T01:49:58.016Z,20.23
2022-09-16T01:52:41.024Z,14.52
2022-09-16T01:55:13.976Z,14.68
2022-09-16T01:57:53.047Z,16.10
2022-09-16T02:00:20.428Z,16.30
2022-09-16T02:03:01.467Z,13.70
2022-09-16T02:05:34.771Z,22.08
2022-09-16T02:08:07.955Z,22.33
2022-09-16T02:10:43.737Z,14.35
2022-09-16T02:13:20.013Z,16.17
2022-09-16T02:18:22.624Z,13.90
2022-09-16T02:20:52.985Z,12.38
2022-09-16T02:23:24.604Z,14.00
2022-09-16T02:25:54.632Z,14.80
2022-09-16T02:28:28.149Z,14.13
2022-09-16T02:30:58.667Z,19.30
2022-09-16T02:33:33.428Z,15.60
2022-09-16T02:36:02.813Z,16.38
2022-09-16T02:38:38.907Z,20.55
2022-09-16T02:41:06.253Z,10.65
2022-09-16T02:43:32.984Z,14.45
2022-09-16T02:46:08.651Z,15.75
2022-09-16T02:48:44.767Z,16.73
2022-09-16T02:51:31.791Z,16.13
2022-09-16T02:54:11.369Z,13.73
2022-09-16T02:56:40.619Z,18.02
2022-09-16T02:59:10.270Z,13.25
2022-09-16T03:01:41.808Z,14.65
2022-09-16T03:04:10.583Z,23.48
2022-09-16T03:06:37.244Z,13.82
2022-09-16T03:09:08.308Z,18.63
2022-09-16T03:11:36.011Z,14.43
2022-09-16T03:14:37.722Z,19.30
2022-09-16T03:17:39.469Z,21.38
2022-09-16T03:20:34.848Z,15.35
2022-09-16T03:23:31.993Z,17.67
2022-09-16T03:26:26.729Z,18.38
2022-09-16T03:29:15.816Z,20.88
2022-09-16T03:31:57.971Z,17.70
2022-09-16T03:34:48.705Z,20.45
2022-09-16T03:37:19.554Z,20.88
2022-09-16T03:39:57.767Z,16.95
2022-09-16T03:42:24.795Z,19.17
2022-09-16T03:44:51.922Z,16.90
2022-09-16T03:47:18.479Z,15.98
2022-09-16T03:49:45.061Z,19.92
2022-09-16T03:52:11.829Z,20.42
2022-09-16T03:54:38.973Z,23.90
2022-09-16T03:57:06.140Z,25.90
2022-09-16T03:59:33.074Z,20.02
2022-09-16T04:01:59.826Z,18.60
2022-09-16T04:04:26.538Z,23.65
2022-09-16T04:06:53.260Z,16.73
2022-09-16T04:09:19.929Z,19.52
2022-09-16T04:11:46.589Z,18.15
2022-09-16T04:14:13.406Z,24.58
2022-09-16T04:16:44.380Z,17.10
2022-09-16T04:19:13.831Z,16.83
2022-09-16T04:21:41.643Z,17.52
2022-09-16T04:24:12.911Z,19.55
2022-09-16T04:26:40.124Z,20.30
2022-09-16T04:29:06.734Z,20.75
2022-09-16T04:31:33.335Z,23.05
2022-09-16T04:34:02.556Z,18.83
2022-09-16T04:36:29.144Z,23.08
2022-09-16T04:38:55.826Z,17.27
2022-09-16T04:41:26.341Z,19.83
2022-09-16T04:43:58.035Z,17.42
2022-09-16T04:46:26.807Z,18.85
2022-09-16T04:48:54.856Z,21.15
2022-09-16T04:51:23.283Z,19.50
2022-09-16T04:53:50.281Z,16.33
2022-09-16T04:56:20.474Z,20.88
2022-09-16T04:58:49.679Z,20.38
2022-09-16T05:01:18.979Z,17.05
2022-09-16T05:03:47.622Z,16.55
2022-09-16T05:06:20.831Z,16.10
2022-09-16T05:08:49.161Z,18.83
2022-09-16T05:11:18.812Z,18.48
2022-09-16T05:13:46.160Z,17.67
2022-09-16T05:16:15.617Z,20.35
2022-09-16T05:18:44.564Z,22.30
2022-09-16T05:21:13.656Z,17.90
2022-09-16T05:23:45.938Z,19.00
2022-09-16T05:26:17.707Z,14.20
2022-09-16T05:28:44.602Z,24.73
2022-09-16T05:31:14.449Z,15.70
2022-09-16T05:33:43.614Z,15.73
2022-09-16T05:36:13.615Z,16.33
2022-09-16T05:38:40.464Z,16.05
2022-09-16T05:41:07.558Z,18.77
2022-09-16T05:43:35.422Z,13.73
2022-09-16T05:46:02.910Z,15.73
2022-09-16T05:48:30.719Z,16.90
2022-09-16T05:50:59.727Z,25.70
2022-09-16T05:53:28.088Z,19.80
2022-09-16T05:56:05.537Z,20.67
2022-09-16T05:58:33.607Z,22.73
2022-09-16T06:01:01.782Z,18.90
2022-09-16T06:03:29.233Z,19.45
2022-09-16T06:06:19.690Z,19.00
2022-09-16T06:08:46.403Z,19.45
2022-09-16T06:11:13.658Z,18.02
2022-09-16T06:13:40.514Z,19.98
2022-09-16T06:16:09.161Z,19.40
2022-09-16T06:18:37.219Z,20.65
2022-09-16T06:21:06.783Z,27.42
2022-09-16T06:23:33.941Z,27.02
2022-09-16T06:26:01.738Z,26.45
2022-09-16T06:28:28.556Z,19.67
2022-09-16T06:31:07.244Z,19.52
2022-09-16T06:33:36.297Z,17.77
2022-09-16T06:36:05.244Z,17.63
2022-09-16T06:38:31.953Z,20.67
2022-09-16T06:41:00.690Z,22.30
2022-09-16T06:43:28.085Z,26.77
2022-09-16T06:45:58.366Z,20.33
2022-09-16T06:48:27.050Z,21.73
2022-09-16T06:51:03.462Z,21.40
2022-09-16T06:53:30.435Z,23.60
2022-09-16T06:56:01.922Z,21.45
2022-09-16T06:58:30.134Z,20.90
2022-09-16T07:00:56.857Z,21.65
2022-09-16T07:03:23.633Z,21.95
2022-09-16T07:05:57.943Z,18.45
2022-09-16T07:08:25.180Z,25.83
2022-09-16T07:11:00.651Z,19.70
2022-09-16T07:13:27.870Z,21.85
2022-09-16T07:16:12.402Z,25.17
2022-09-16T07:18:39.734Z,22.73
2022-09-16T07:21:10.523Z,25.02
2022-09-16T07:23:38.546Z,25.23
2022-09-16T07:26:07.876Z,23.10
2022-09-16T07:28:35.264Z,27.70
2022-09-16T07:31:08.493Z,30.00
2022-09-16T07:33:38.247Z,24.63
2022-09-16T07:36:06.316Z,24.23
2022-09-16T07:38:33.543Z,30.08
2022-09-16T07:41:09.791Z,29.38
2022-09-16T07:46:03.614Z,26.42
2022-09-16T07:48:34.929Z,28.77
2022-09-16T07:51:06.312Z,26.70
2022-09-16T07:53:33.865Z,27.60
2022-09-16T07:56:06.469Z,25.10
2022-09-16T07:58:33.425Z,30.55
2022-09-16T08:01:04.580Z,26.13
2022-09-16T08:03:34.248Z,26.38
2022-09-16T08:06:03.489Z,26.70
2022-09-16T08:08:31.276Z,30.60
2022-09-16T08:10:59.404Z,25.83
2022-09-16T08:13:29.154Z,28.75
2022-09-16T08:15:59.874Z,28.33
2022-09-16T08:18:26.447Z,33.15
2022-09-16T08:20:53.051Z,28.38
2022-09-16T08:23:20.209Z,27.10
2022-09-16T08:25:47.204Z,29.00
2022-09-16T08:28:15.526Z,27.52
2022-09-16T08:30:42.988Z,26.33
2022-09-16T08:33:10.456Z,29.92
2022-09-16T08:35:37.025Z,27.35
2022-09-16T08:38:03.838Z,25.08
2022-09-16T08:40:36.965Z,22.70
2022-09-16T08:43:14.103Z,29.60
2022-09-16T08:46:01.048Z,21.77
2022-09-16T08:48:46.249Z,25.13
2022-09-16T08:51:18.756Z,19.63
2022-09-16T08:53:49.108Z,22.40
2022-09-16T08:56:20.814Z,25.65
2022-09-16T08:58:53.978Z,23.80
2022-09-16T09:01:24.807Z,24.52
2022-09-16T09:03:51.720Z,28.70
2022-09-16T09:06:32.913Z,26.95
2022-09-16T09:09:16.181Z,24.42
2022-09-16T09:11:43.741Z,23.40
2022-09-16T09:14:21.431Z,25.80
2022-09-16T09:17:08.092Z,26.50
2022-09-16T09:20:07.271Z,26.48
2022-09-16T09:22:50.311Z,27.60
2022-09-16T09:25:47.433Z,26.20
2022-09-16T09:28:47.135Z,24.95
2022-09-16T09:31:29.984Z,25.30
2022-09-16T09:34:16.783Z,28.13
2022-09-16T09:39:34.381Z,21.25
2022-09-16T09:42:21.314Z,30.42
2022-09-16T09:45:18.348Z,31.70
2022-09-16T09:47:51.483Z,29.30
2022-09-16T09:50:25.649Z,27.92
2022-09-16T09:53:02.970Z,28.58
2022-09-16T09:55:34.282Z,25.77
2022-09-16T09:58:20.434Z,29.15
2022-09-16T10:00:47.372Z,28.02
2022-09-16T10:03:17.762Z,28.75
2022-09-16T10:05:46.662Z,24.80
2022-09-16T10:08:22.853Z,24.15
2022-09-16T10:13:19.542Z,24.10
2022-09-16T10:15:48.312Z,22.88
2022-09-16T10:18:32.487Z,24.40
2022-09-16T10:21:03.794Z,27.85
2022-09-16T10:23:31.359Z,26.70
2022-09-16T10:26:22.366Z,26.42
2022-09-16T10:29:15.008Z,24.63
2022-09-16T10:31:42.877Z,24.63
2022-09-16T10:34:21.250Z,22.63
2022-09-16T10:37:01.108Z,23.38
2022-09-16T10:39:29.576Z,24.42
2022-09-16T10:41:56.854Z,18.75
2022-09-16T10:44:28.931Z,23.63
2022-09-16T10:47:02.375Z,19.60
2022-09-16T10:49:39.039Z,22.77
2022-09-16T10:52:19.126Z,23.17
2022-09-16T10:54:46.510Z,22.92
2022-09-16T10:57:29.458Z,20.30
2022-09-16T11:00:15.114Z,20.98
2022-09-16T11:03:16.871Z,22.00
2022-09-16T11:05:44.820Z,19.63
2022-09-16T11:08:18.739Z,22.95
2022-09-16T11:10:57.018Z,20.05
2022-09-16T11:13:32.444Z,17.98
2022-09-16T11:16:23.938Z,24.70
2022-09-16T11:19:03.783Z,24.45
2022-09-16T11:21:56.001Z,17.02
2022-09-16T11:24:53.890Z,18.58
2022-09-16T11:27:40.421Z,24.02
2022-09-16T11:30:18.407Z,18.13
2022-09-16T11:32:47.165Z,21.05
2022-09-16T11:35:32.703Z,18.42
2022-09-16T11:38:16.497Z,17.80
2022-09-16T11:40:58.338Z,15.52
2022-09-16T11:43:40.110Z,17.83
2022-09-16T11:46:23.456Z,21.67
2022-09-16T11:49:05.445Z,18.85
2022-09-16T11:51:52.873Z,18.38
2022-09-16T11:54:36.118Z,17.67
2022-09-16T11:57:10.884Z,18.20
2022-09-16T11:59:59.829Z,21.48
2022-09-16T12:02:36.535Z,18.98
2022-09-16T12:05:22.804Z,13.95
2022-09-16T12:08:02.512Z,18.23
2022-09-16T12:10:49.841Z,14.75
2022-09-16T12:13:19.141Z,19.45
2022-09-16T12:15:48.661Z,16.00
2022-09-16T12:18:24.712Z,16.83
2022-09-16T12:21:08.160Z,15.63
2022-09-16T12:23:42.555Z,13.38
2022-09-16T12:26:18.341Z,17.55
2022-09-16T12:28:56.618Z,14.13
2022-09-16T12:31:38.420Z,20.58
2022-09-16T12:34:11.979Z,17.08
2022-09-16T12:36:43.926Z,17.50
2022-09-16T12:39:12.626Z,11.15
2022-09-16T12:41:59.591Z,15.52
2022-09-16T12:45:01.342Z,12.38
2022-09-16T12:47:54.721Z,16.55
2022-09-16T12:50:36.938Z,11.82
2022-09-16T12:53:34.126Z,12.52
2022-09-16T12:59:07.158Z,12.43
2022-09-16T13:01:46.049Z,12.63
2022-09-16T13:04:26.110Z,12.55
2022-09-16T13:06:59.773Z,10.25
2022-09-16T13:09:33.086Z,12.70
2022-09-16T13:14:59.012Z,11.90
2022-09-16T13:17:32.258Z,13.48
2022-09-16T13:20:22.297Z,10.55
2022-09-16T13:23:17.398Z,10.35
2022-09-16T13:25:50.191Z,11.25
2022-09-16T13:28:32.107Z,10.30
2022-09-16T13:31:18.715Z,14.02
2022-09-16T13:36:13.639Z,9.77
2022-09-16T13:38:43.088Z,11.27
2022-09-16T13:41:12.889Z,9.45
2022-09-16T13:43:53.041Z,16.98
2022-09-16T13:46:29.772Z,14.70
2022-09-16T13:49:04.688Z,15.52
2022-09-16T13:51:36.169Z,13.93
2022-09-16T13:54:04.628Z,18.75
2022-09-16T13:56:48.146Z,15.48
2022-09-16T13:59:15.939Z,18.15
2022-09-16T14:02:00.096Z,21.42
2022-09-16T14:04:41.722Z,13.50
2022-09-16T14:07:38.431Z,16.95
2022-09-16T14:10:25.928Z,10.93
2022-09-16T14:13:16.929Z,14.18
2022-09-16T14:15:47.787Z,9.50
2022-09-16T14:18:17.971Z,12.57
2022-09-16T14:21:06.651Z,8.93
2022-09-16T14:23:33.888Z,8.45
2022-09-16T14:26:17.616Z,12.80
2022-09-16T14:28:44.799Z,10.07
2022-09-16T14:31:18.691Z,9.57
2022-09-16T14:33:56.709Z,10.25
2022-09-16T14:36:26.820Z,14.38
2022-09-16T14:38:58.793Z,11.35
2022-09-16T14:41:44.074Z,7.60
2022-09-16T14:44:18.360Z,15.90
2022-09-16T14:47:09.054Z,10.35
2022-09-16T14:49:40.245Z,14.30
2022-09-16T14:52:18.635Z,10.23
2022-09-16T14:54:45.625Z,10.98
2022-09-16T14:57:23.084Z,9.65
2022-09-16T14:59:53.069Z,9.75
2022-09-16T15:02:36.183Z,9.50
2022-09-16T15:05:18.735Z,6.32
2022-09-16T15:08:09.653Z,12.02
2022-09-16T15:10:50.018Z,8.93
2022-09-16T15:13:20.381Z,20.75
2022-09-16T15:15:51.521Z,27.10
2022-09-16T15:18:29.381Z,8.52
2022-09-16T15:21:09.957Z,4.43
2022-09-16T15:23:39.801Z,6.28
2022-09-16T15:26:18.237Z,7.28
2022-09-16T15:29:02.305Z,4.07
2022-09-16T15:31:34.802Z,5.55
2022-09-16T15:34:05.200Z,4.30
2022-09-16T15:36:33.149Z,4.68
2022-09-16T15:38:59.749Z,7.90
2022-09-16T15:41:26.678Z,4.95
2022-09-16T15:43:53.486Z,6.38
2022-09-16T15:46:23.544Z,5.70
2022-09-16T15:49:01.932Z,7.03
2022-09-16T15:51:33.228Z,5.32
2022-09-16T15:54:22.475Z,5.75
2022-09-16T15:57:03.869Z,7.82
2022-09-16T15:59:47.971Z,7.97
2022-09-16T16:02:23.950Z,8.57
2022-09-16T16:04:50.846Z,9.27
2022-09-16T16:07:48.396Z,5.18
2022-09-16T16:10:20.928Z,5.20
2022-09-16T16:12:49.326Z,7.40
2022-09-16T16:15:18.680Z,12.00
2022-09-16T16:17:47.489Z,8.15
2022-09-16T16:20:17.047Z,11.00
2022-09-16T16:22:45.400Z,5.57
2022-09-16T16:25:13.740Z,8.35
2022-09-16T16:27:41.333Z,9.57
2022-09-16T16:30:08.748Z,6.97
2022-09-16T16:32:35.381Z,7.25
2022-09-16T16:35:02.178Z,7.60
2022-09-16T16:37:45.416Z,25.30
2022-09-16T16:40:14.211Z,59.33
2022-09-16T16:42:43.093Z,35.28
2022-09-16T16:45:11.344Z,17.08
2022-09-16T16:47:42.196Z,9.65
2022-09-16T16:50:12.622Z,7.43
2022-09-16T16:52:39.422Z,7.88
2022-09-16T16:55:06.837Z,7.20
2022-09-16T16:57:33.548Z,7.07
2022-09-16T17:00:00.125Z,8.02
2022-09-16T17:02:26.860Z,4.18
2022-09-16T17:04:53.458Z,7.32
2022-09-16T17:07:28.122Z,9.90
2022-09-16T17:09:57.114Z,7.18
2022-09-16T17:12:23.761Z,8.52
2022-09-16T17:14:50.316Z,7.75
2022-09-16T17:17:16.901Z,4.53
2022-09-16T17:19:43.479Z,6.25
2022-09-16T17:22:10.990Z,6.85
2022-09-16T17:24:37.567Z,13.93
2022-09-16T17:27:04.496Z,9.38
2022-09-16T17:29:31.193Z,5.32
2022-09-16T17:32:00.774Z,9.13
2022-09-16T17:34:27.418Z,4.32
2022-09-16T17:36:54.695Z,5.75
2022-09-16T17:39:22.730Z,9.68
2022-09-16T17:41:50.105Z,7.13
2022-09-16T17:44:17.991Z,8.45
2022-09-16T17:46:45.577Z,6.05
2022-09-16T17:49:27.458Z,6.35
2022-09-16T17:51:54.345Z,9.82
2022-09-16T17:54:22.784Z,9.15
2022-09-16T17:56:49.769Z,7.20
2022-09-16T17:59:18.890Z,8.55
2022-09-16T18:01:46.171Z,8.57
2022-09-16T18:04:13.271Z,6.05
2022-09-16T18:06:43.151Z,14.95
2022-09-16T18:09:10.743Z,9.32
2022-09-16T18:11:38.748Z,14.05
2022-09-16T18:14:07.996Z,11.85
2022-09-16T18:16:34.942Z,8.25
2022-09-16T18:19:02.707Z,10.45
2022-09-16T18:21:30.256Z,8.10
2022-09-16T18:23:59.676Z,10.88
2022-09-16T18:26:27.286Z,16.70
2022-09-16T18:29:12.374Z,8.90
2022-09-16T18:31:43.721Z,10.90
2022-09-16T18:34:11.098Z,7.38
2022-09-16T18:36:39.172Z,9.43
2022-09-16T18:39:07.679Z,6.45
2022-09-16T18:41:36.985Z,11.43
2022-09-16T18:44:07.705Z,12.15
2022-09-16T18:46:37.009Z,9.90
2022-09-16T18:49:04.913Z,8.40
2022-09-16T18:51:35.433Z,9.27
2022-09-16T18:54:05.241Z,7.85
2022-09-16T18:56:34.985Z,10.75
2022-09-16T18:59:24.026Z,9.85
2022-09-16T19:01:53.162Z,8.05
2022-09-16T19:04:24.708Z,9.88
2022-09-16T19:06:53.938Z,10.00
2022-09-16T19:09:23.541Z,13.07
2022-09-16T19:11:52.904Z,13.50
2022-09-16T19:14:22.454Z,12.48
2022-09-16T19:16:49.274Z,11.02
2022-09-16T19:19:16.508Z,12.75
2022-09-16T19:21:43.799Z,10.65
2022-09-16T19:24:16.576Z,11.30
2022-09-16T19:26:44.939Z,10.27
2022-09-16T19:29:13.149Z,10.20
2022-09-16T19:31:42.198Z,13.93
2022-09-16T19:34:09.194Z,16.08
2022-09-16T19:36:37.409Z,12.95
2022-09-16T19:39:05.676Z,15.10
2022-09-16T19:41:37.315Z,10.95
2022-09-16T19:44:07.543Z,9.73
2022-09-16T19:46:36.711Z,14.73
2022-09-16T19:49:05.306Z,12.13
2022-09-16T19:51:33.160Z,13.00
2022-09-16T19:54:00.921Z,10.18
2022-09-16T19:56:30.935Z,10.10
2022-09-16T19:58:57.575Z,12.50
2022-09-16T20:01:26.443Z,10.35
2022-09-16T20:03:53.936Z,8.55
2022-09-16T20:06:23.966Z,10.68
2022-09-16T20:08:56.934Z,13.23
2022-09-16T20:11:26.426Z,10.48
2022-09-16T20:14:00.298Z,8.60
2022-09-16T20:16:30.650Z,12.40
2022-09-16T20:18:57.551Z,13.15
2022-09-16T20:21:26.188Z,12.98
2022-09-16T20:23:54.260Z,15.73
2022-09-16T20:26:21.556Z,9.90
2022-09-16T20:28:51.378Z,13.32
2022-09-16T20:31:20.714Z,13.13
2022-09-16T20:33:48.445Z,10.30
2022-09-16T20:36:17.118Z,12.05
2022-09-16T20:38:44.481Z,9.43
2022-09-16T20:41:14.519Z,18.35
2022-09-16T20:43:41.748Z,11.75
2022-09-16T20:46:11.979Z,9.90
2022-09-16T20:48:42.590Z,15.75
2022-09-16T20:51:12.909Z,13.57
2022-09-16T20:53:41.159Z,10.98
2022-09-16T20:56:14.567Z,12.50
2022-09-16T20:58:42.514Z,19.15
2022-09-16T21:01:22.322Z,46.70
2022-09-16T21:03:54.467Z,62.42
2022-09-16T21:06:23.873Z,165.32
2022-09-16T21:09:00.012Z,73.07
2022-09-16T21:11:29.508Z,33.92
2022-09-16T21:14:01.717Z,28.23
2022-09-16T21:16:31.701Z,16.80
2022-09-16T21:19:01.230Z,14.23
2022-09-16T21:21:28.923Z,15.05
2022-09-16T21:23:57.889Z,13.57
2022-09-16T21:26:26.268Z,11.77
2022-09-16T21:28:55.764Z,13.95
2022-09-16T21:31:23.269Z,14.63
2022-09-16T21:33:51.910Z,13.23
2022-09-16T21:36:20.325Z,12.18
2022-09-16T21:38:47.639Z,13.73
2022-09-16T21:41:17.031Z,14.73
2022-09-16T21:43:48.772Z,10.85
2022-09-16T21:46:20.107Z,18.38
2022-09-16T21:48:49.394Z,12.13
2022-09-16T21:51:17.808Z,11.68
2022-09-16T21:53:45.664Z,11.23
2022-09-16T21:56:15.710Z,11.65
2022-09-16T21:58:42.650Z,9.75
2022-09-16T22:01:14.480Z,12.95
2022-09-16T22:03:43.018Z,14.43
2022-09-16T22:06:11.542Z,8.93
2022-09-16T22:08:38.368Z,12.43
2022-09-16T22:11:09.035Z,11.90
2022-09-16T22:13:36.507Z,9.73
2022-09-16T22:16:04.422Z,17.10
2022-09-16T22:18:31.322Z,12.82
2022-09-16T22:21:08.275Z,14.05
2022-09-16T22:23:37.297Z,14.73
2022-09-16T22:26:05.947Z,12.95
2022-09-16T22:28:33.768Z,15.25
2022-09-16T22:31:17.388Z,11.20
2022-09-16T22:33:45.949Z,15.05
2022-09-16T22:36:15.913Z,11.35
2022-09-16T22:38:48.255Z,12.27
2022-09-16T22:41:16.456Z,15.68
2022-09-16T22:43:45.717Z,14.95
2022-09-16T22:46:15.350Z,17.63
2022-09-16T22:48:43.212Z,9.85
2022-09-16T22:51:12.092Z,13.57
2022-09-16T22:53:39.681Z,12.73
2022-09-16T22:56:08.380Z,15.23
2022-09-16T22:58:35.330Z,13.73
2022-09-16T23:01:12.131Z,14.25
2022-09-16T23:03:39.897Z,11.57
2022-09-16T23:06:11.377Z,11.38
2022-09-16T23:08:41.874Z,15.30
2022-09-16T23:11:13.247Z,11.57
2022-09-16T23:13:42.550Z,20.23
2022-09-16T23:16:15.105Z,14.77
2022-09-16T23:18:42.876Z,12.68
2022-09-16T23:21:11.474Z,13.48
2022-09-16T23:23:40.212Z,12.95
2022-09-16T23:26:10.233Z,15.95
2022-09-16T23:28:37.215Z,19.63
2022-09-16T23:31:06.511Z,45.20
2022-09-16T23:33:33.429Z,12.43
2022-09-16T23:36:00.380Z,12.05
2022-09-16T23:38:27.931Z,12.27
2022-09-16T23:40:55.141Z,14.10
2022-09-16T23:43:22.609Z,15.82
2022-09-16T23:45:49.464Z,15.00
2022-09-16T23:48:17.743Z,13.30
2022-09-16T23:50:45.027Z,21.52
2022-09-16T23:53:12.052Z,14.50
2022-09-16T23:55:43.618Z,13.73
2022-09-16T23:58:11.399Z,12.23
